createdAt,value
2023-03-29T00:02:33.781Z,95753.22
2023-03-29T00:05:04.840Z,95765.47
2023-03-29T00:07:33.435Z,95781.38
2023-03-29T00:10:01.486Z,95781.94
2023-03-29T00:12:28.412Z,95789.00
2023-03-29T00:14:55.121Z,95786.94
2023-03-29T00:17:21.876Z,95795.41
2023-03-29T00:19:48.920Z,95800.75
2023-03-29T00:22:15.464Z,95798.03
2023-03-29T00:24:42.149Z,95789.09
2023-03-29T00:27:08.778Z,95794.25
2023-03-29T00:29:35.494Z,95797.56
2023-03-29T00:32:02.082Z,95812.03
2023-03-29T00:34:31.371Z,95797.53
2023-03-29T00:36:58.749Z,95798.44
2023-03-29T00:39:26.526Z,95811.38
2023-03-29T00:41:55.192Z,95803.22
2023-03-29T00:44:52.796Z,95790.66
2023-03-29T00:47:24.844Z,95806.91
2023-03-29T00:49:52.997Z,95808.44
2023-03-29T00:52:21.766Z,95813.19
2023-03-29T00:54:53.010Z,95800.16
2023-03-29T00:57:22.611Z,95809.59
2023-03-29T00:59:51.840Z,95797.31
2023-03-29T01:02:25.905Z,95799.47
2023-03-29T01:05:06.436Z,95792.34
2023-03-29T01:07:47.947Z,95775.75
2023-03-29T01:10:20.396Z,95767.91
2023-03-29T01:12:56.282Z,95769.09
2023-03-29T01:15:26.434Z,95761.72
2023-03-29T01:17:55.427Z,95753.84
2023-03-29T01:20:46.702Z,95752.13
2023-03-29T01:23:43.636Z,95737.13
2023-03-29T01:26:22.971Z,95734.09
2023-03-29T01:29:12.740Z,95719.78
2023-03-29T01:31:45.813Z,95725.25
2023-03-29T01:34:27.953Z,95728.03
2023-03-29T01:37:04.300Z,95730.03
2023-03-29T01:39:34.090Z,95722.81
2023-03-29T01:42:06.771Z,95696.22
2023-03-29T01:45:00.287Z,95682.91
2023-03-29T01:47:40.008Z,95686.91
2023-03-29T01:50:30.050Z,95668.84
2023-03-29T01:53:02.142Z,95672.72
2023-03-29T01:55:34.531Z,95675.09
2023-03-29T01:58:05.036Z,95674.47
2023-03-29T02:00:34.188Z,95666.25
2023-03-29T02:03:06.778Z,95664.44
2023-03-29T02:05:35.845Z,95660.09
2023-03-29T02:08:05.663Z,95645.78
2023-03-29T02:10:34.357Z,95655.56
2023-03-29T02:13:01.337Z,95651.81
2023-03-29T02:15:28.078Z,95629.31
2023-03-29T02:17:57.043Z,95625.06
2023-03-29T02:20:28.809Z,95638.94
2023-03-29T02:23:16.004Z,95630.72
2023-03-29T02:25:45.472Z,95631.53
2023-03-29T02:28:13.031Z,95622.63
2023-03-29T02:31:03.449Z,95616.00
2023-03-29T02:33:47.076Z,95615.63
2023-03-29T02:36:20.771Z,95616.72
2023-03-29T02:38:47.524Z,95604.44
2023-03-29T02:41:16.451Z,95603.22
2023-03-29T02:43:46.085Z,95595.38
2023-03-29T02:46:14.776Z,95598.72
2023-03-29T02:48:46.715Z,95599.25
2023-03-29T02:51:20.133Z,95602.16
2023-03-29T02:54:03.034Z,95592.41
2023-03-29T02:56:29.925Z,95595.25
2023-03-29T02:58:56.474Z,95588.13
2023-03-29T03:01:23.383Z,95587.44
2023-03-29T03:03:51.924Z,95587.03
2023-03-29T03:06:19.052Z,95588.28
2023-03-29T03:08:45.618Z,95584.41
2023-03-29T03:11:12.194Z,95587.06
2023-03-29T03:13:39.341Z,95586.78
2023-03-29T03:16:07.859Z,95572.88
2023-03-29T03:18:34.529Z,95580.44
2023-03-29T03:21:01.910Z,95589.84
2023-03-29T03:23:29.432Z,95572.28
2023-03-29T03:25:56.843Z,95579.78
2023-03-29T03:28:24.204Z,95574.34
2023-03-29T03:30:50.935Z,95559.75
2023-03-29T03:33:18.801Z,95547.41
2023-03-29T03:35:48.209Z,95552.84
2023-03-29T03:38:16.632Z,95548.94
2023-03-29T03:40:45.131Z,95549.16
2023-03-29T03:43:11.681Z,95542.00
2023-03-29T03:45:38.478Z,95536.25
2023-03-29T03:48:12.333Z,95525.44
2023-03-29T03:50:53.197Z,95528.44
2023-03-29T03:53:21.144Z,95525.94
2023-03-29T03:56:09.058Z,95517.56
2023-03-29T03:58:47.525Z,95519.56
2023-03-29T04:01:14.334Z,95513.44
2023-03-29T04:03:49.719Z,95495.56
2023-03-29T04:06:18.187Z,95501.25
2023-03-29T04:09:09.325Z,95510.06
2023-03-29T04:11:39.426Z,95506.25
2023-03-29T04:14:06.540Z,95498.22
2023-03-29T04:16:56.341Z,95493.75
2023-03-29T04:19:49.169Z,95502.91
2023-03-29T04:22:15.829Z,95497.88
2023-03-29T04:24:42.941Z,95493.06
2023-03-29T04:27:28.461Z,95500.63
2023-03-29T04:29:55.849Z,95490.34
2023-03-29T04:32:30.479Z,95481.97
2023-03-29T04:35:04.794Z,95479.38
2023-03-29T04:37:32.622Z,95482.25
2023-03-29T04:40:04.428Z,95487.47
2023-03-29T04:42:45.787Z,95490.34
2023-03-29T04:45:18.020Z,95486.63
2023-03-29T04:48:05.528Z,95483.19
2023-03-29T04:50:32.224Z,95492.81
2023-03-29T04:53:00.260Z,95485.50
2023-03-29T04:55:28.239Z,95478.88
2023-03-29T04:58:00.388Z,95470.16
2023-03-29T05:00:45.823Z,95475.22
2023-03-29T05:03:42.165Z,95465.38
2023-03-29T05:06:18.192Z,95476.34
2023-03-29T05:08:45.198Z,95487.81
2023-03-29T05:11:26.119Z,95488.50
2023-03-29T05:13:55.498Z,95477.16
2023-03-29T05:16:22.334Z,95485.91
2023-03-29T05:18:49.329Z,95488.06
2023-03-29T05:21:16.028Z,95477.66
2023-03-29T05:23:45.208Z,95478.69
2023-03-29T05:26:31.695Z,95485.28
2023-03-29T05:28:58.236Z,95478.13
2023-03-29T05:31:25.617Z,95477.69
2023-03-29T05:33:54.712Z,95469.47
2023-03-29T05:36:21.683Z,95476.75
2023-03-29T05:38:49.810Z,95466.34
2023-03-29T05:41:20.688Z,95468.47
2023-03-29T05:44:19.684Z,95481.09
2023-03-29T05:46:51.028Z,95478.78
2023-03-29T05:49:18.495Z,95485.00
2023-03-29T05:52:11.576Z,95482.81
2023-03-29T05:54:38.641Z,95486.47
2023-03-29T05:57:06.181Z,95484.34
2023-03-29T05:59:36.469Z,95478.53
2023-03-29T06:02:04.717Z,95489.66
2023-03-29T06:04:33.377Z,95486.75
2023-03-29T06:07:20.111Z,95482.88
2023-03-29T06:10:09.666Z,95491.78
2023-03-29T06:12:38.391Z,95482.41
2023-03-29T06:15:06.208Z,95487.16
2023-03-29T06:17:41.787Z,95492.44
2023-03-29T06:20:10.975Z,95501.88
2023-03-29T06:22:41.453Z,95495.66
2023-03-29T06:25:14.184Z,95499.97
2023-03-29T06:27:41.902Z,95502.59
2023-03-29T06:30:10.160Z,95504.53
2023-03-29T06:32:37.461Z,95508.34
2023-03-29T06:35:11.416Z,95513.13
2023-03-29T06:37:49.348Z,95513.41
2023-03-29T06:40:31.111Z,95517.16
2023-03-29T06:42:58.304Z,95524.44
2023-03-29T06:45:44.664Z,95513.69
2023-03-29T06:48:27.767Z,95516.25
2023-03-29T06:50:54.624Z,95512.63
2023-03-29T06:53:24.681Z,95519.88
2023-03-29T06:55:56.314Z,95509.59
2023-03-29T06:58:40.924Z,95513.75
2023-03-29T07:01:28.477Z,95511.41
2023-03-29T07:04:08.176Z,95510.16
2023-03-29T07:07:01.317Z,95509.81
2023-03-29T07:09:30.881Z,95512.78
2023-03-29T07:12:36.062Z,95505.41
2023-03-29T07:15:02.779Z,95516.66
2023-03-29T07:17:49.554Z,95512.47
2023-03-29T07:20:16.637Z,95520.84
2023-03-29T07:22:51.198Z,95518.41
2023-03-29T07:25:20.488Z,95512.69
2023-03-29T07:27:47.488Z,95526.31
2023-03-29T07:30:20.781Z,95513.84
2023-03-29T07:32:47.967Z,95515.06
2023-03-29T07:35:28.913Z,95520.16
2023-03-29T07:37:55.886Z,95517.66
2023-03-29T07:40:24.584Z,95523.41
2023-03-29T07:42:57.451Z,95528.41
2023-03-29T07:45:28.648Z,95528.19
2023-03-29T07:48:08.689Z,95524.19
2023-03-29T07:50:58.716Z,95532.06
2023-03-29T07:53:30.723Z,95531.50
2023-03-29T07:55:58.932Z,95541.31
2023-03-29T07:58:51.680Z,95535.94
2023-03-29T08:01:19.776Z,95532.19
2023-03-29T08:04:05.809Z,95535.66
2023-03-29T08:06:51.504Z,95546.44
2023-03-29T08:09:21.106Z,95551.19
2023-03-29T08:11:47.804Z,95533.84
2023-03-29T08:14:23.887Z,95542.59
2023-03-29T08:17:09.554Z,95549.72
2023-03-29T08:19:41.552Z,95549.19
2023-03-29T08:22:20.461Z,95546.38
2023-03-29T08:25:06.994Z,95544.72
2023-03-29T08:27:38.536Z,95544.94
2023-03-29T08:30:08.354Z,95545.91
2023-03-29T08:32:37.884Z,95542.63
2023-03-29T08:35:07.076Z,95545.41
2023-03-29T08:37:38.292Z,95549.97
2023-03-29T08:40:06.058Z,95552.00
2023-03-29T08:43:13.322Z,95534.19
2023-03-29T08:46:35.781Z,95533.31
2023-03-29T08:49:22.259Z,95534.59
2023-03-29T08:51:56.601Z,95526.84
2023-03-29T08:54:33.632Z,95528.72
2023-03-29T08:57:19.311Z,95528.47
2023-03-29T08:59:53.356Z,95527.28
2023-03-29T09:02:31.912Z,95534.44
2023-03-29T09:05:18.091Z,95520.53
2023-03-29T09:08:12.336Z,95520.53
2023-03-29T09:11:08.507Z,95523.69
2023-03-29T09:13:49.946Z,95522.31
2023-03-29T09:16:22.973Z,95525.97
2023-03-29T09:19:06.941Z,95529.94
2023-03-29T09:21:39.433Z,95521.69
2023-03-29T09:24:19.072Z,95532.88
2023-03-29T09:27:00.308Z,95523.84
2023-03-29T09:29:50.275Z,95529.66
2023-03-29T09:32:32.966Z,95523.03
2023-03-29T09:35:18.655Z,95528.59
2023-03-29T09:37:48.547Z,95530.69
2023-03-29T09:40:23.803Z,95526.34
2023-03-29T09:43:04.105Z,95527.31
2023-03-29T09:45:31.358Z,95516.50
2023-03-29T09:48:05.209Z,95514.00
2023-03-29T09:50:36.749Z,95515.25
2023-03-29T09:53:07.230Z,95510.47
2023-03-29T09:55:39.561Z,95510.47
2023-03-29T09:58:27.669Z,95511.47
2023-03-29T10:00:59.083Z,95502.47
2023-03-29T10:03:31.297Z,95510.94
2023-03-29T10:06:20.569Z,95504.81
2023-03-29T10:08:56.769Z,95504.63
2023-03-29T10:11:33.131Z,95502.38
2023-03-29T10:14:06.461Z,95497.22
2023-03-29T10:16:41.858Z,95489.59
2023-03-29T10:19:28.641Z,95491.41
2023-03-29T10:21:55.864Z,95501.66
2023-03-29T10:24:24.737Z,95497.38
2023-03-29T10:26:55.525Z,95490.22
2023-03-29T10:29:24.674Z,95492.41
2023-03-29T10:31:53.099Z,95486.88
2023-03-29T10:34:25.175Z,95483.06
2023-03-29T10:36:59.066Z,95488.25
2023-03-29T10:39:29.264Z,95467.69
2023-03-29T10:41:55.911Z,95467.09
2023-03-29T10:44:41.191Z,95465.88
2023-03-29T10:47:16.934Z,95470.22
2023-03-29T10:49:56.819Z,95468.03
2023-03-29T10:52:23.853Z,95457.81
2023-03-29T10:54:52.800Z,95468.75
2023-03-29T10:58:01.611Z,95456.97
2023-03-29T11:00:42.014Z,95470.59
2023-03-29T11:03:40.206Z,95443.94
2023-03-29T11:06:34.097Z,95449.53
2023-03-29T11:09:08.555Z,95450.97
2023-03-29T11:12:04.478Z,95449.63
2023-03-29T11:15:02.973Z,95449.28
2023-03-29T11:18:05.968Z,95461.47
2023-03-29T11:20:46.893Z,95459.91
2023-03-29T11:23:24.360Z,95458.78
2023-03-29T11:26:09.696Z,95464.47
2023-03-29T11:28:49.166Z,95466.03
2023-03-29T11:31:44.000Z,95469.91
2023-03-29T11:34:41.478Z,95465.16
2023-03-29T11:37:20.406Z,95466.88
2023-03-29T11:40:05.557Z,95469.56
2023-03-29T11:42:35.903Z,95454.50
2023-03-29T11:45:04.891Z,95465.81
2023-03-29T11:47:38.650Z,95472.06
2023-03-29T11:50:28.892Z,95460.97
2023-03-29T11:53:05.868Z,95462.28
2023-03-29T11:55:37.077Z,95451.28
2023-03-29T11:58:20.568Z,95451.78
2023-03-29T12:01:01.732Z,95442.00
2023-03-29T12:03:41.157Z,95453.88
2023-03-29T12:06:12.901Z,95439.41
2023-03-29T12:08:47.857Z,95428.63
2023-03-29T12:11:24.001Z,95431.50
2023-03-29T12:13:53.429Z,95434.63
2023-03-29T12:16:32.395Z,95429.47
2023-03-29T12:19:05.995Z,95431.94
2023-03-29T12:21:36.222Z,95426.19
2023-03-29T12:24:03.678Z,95434.16
2023-03-29T12:26:30.172Z,95425.38
2023-03-29T12:29:21.028Z,95421.13
2023-03-29T12:32:12.638Z,95414.97
2023-03-29T12:35:14.125Z,95414.78
2023-03-29T12:38:07.145Z,95408.63
2023-03-29T12:40:58.555Z,95413.25
2023-03-29T12:43:44.050Z,95416.34
2023-03-29T12:46:27.019Z,95408.03
2023-03-29T12:48:57.306Z,95407.00
2023-03-29T12:51:32.209Z,95402.53
2023-03-29T12:54:21.631Z,95397.38
2023-03-29T12:57:00.256Z,95397.22
2023-03-29T12:59:43.280Z,95396.72
2023-03-29T13:02:13.730Z,95394.28
2023-03-29T13:04:43.489Z,95388.31
2023-03-29T13:07:22.315Z,95383.91
2023-03-29T13:09:51.877Z,95383.88
2023-03-29T13:12:27.172Z,95385.78
2023-03-29T13:15:16.623Z,95385.47
2023-03-29T13:18:11.645Z,95388.78
2023-03-29T13:21:07.252Z,95395.91
2023-03-29T13:23:58.286Z,95397.91
2023-03-29T13:26:47.037Z,95390.34
2023-03-29T13:29:47.893Z,95387.38
2023-03-29T13:32:29.252Z,95385.75
2023-03-29T13:35:14.705Z,95373.50
2023-03-29T13:37:59.423Z,95371.66
2023-03-29T13:40:42.048Z,95381.63
2023-03-29T13:43:23.691Z,95372.78
2023-03-29T13:45:56.378Z,95369.81
2023-03-29T13:48:28.568Z,95383.28
2023-03-29T13:51:07.781Z,95384.06
2023-03-29T13:53:39.455Z,95377.69
2023-03-29T13:56:10.984Z,95366.97
2023-03-29T13:58:51.364Z,95372.75
2023-03-29T14:01:48.506Z,95370.25
2023-03-29T14:04:25.536Z,95373.19
2023-03-29T14:06:54.999Z,95372.97
2023-03-29T14:09:28.080Z,95364.34
2023-03-29T14:11:55.594Z,95363.41
2023-03-29T14:14:25.673Z,95358.59
2023-03-29T14:16:55.456Z,95362.97
2023-03-29T14:19:32.477Z,95362.09
2023-03-29T14:22:03.355Z,95356.13
2023-03-29T14:24:41.559Z,95356.09
2023-03-29T14:27:11.464Z,95354.78
2023-03-29T14:29:38.383Z,95366.53
2023-03-29T14:32:18.531Z,95354.88
2023-03-29T14:34:49.719Z,95369.34
2023-03-29T14:37:22.349Z,95362.41
2023-03-29T14:39:50.788Z,95353.06
2023-03-29T14:42:22.891Z,95362.03
2023-03-29T14:44:50.857Z,95360.63
2023-03-29T14:47:27.979Z,95364.56
2023-03-29T14:49:58.737Z,95347.84
2023-03-29T14:52:26.492Z,95350.97
2023-03-29T14:54:59.253Z,95350.00
2023-03-29T14:57:28.961Z,95367.75
2023-03-29T15:00:01.207Z,95374.44
2023-03-29T15:02:33.202Z,95379.19
2023-03-29T15:05:05.387Z,95389.03
2023-03-29T15:07:34.752Z,95393.94
2023-03-29T15:10:05.021Z,95392.00
2023-03-29T15:12:33.665Z,95402.09
2023-03-29T15:15:02.523Z,95400.75
2023-03-29T15:17:50.479Z,95392.75
2023-03-29T15:20:23.922Z,95386.94
2023-03-29T15:23:19.519Z,95395.94
2023-03-29T15:25:53.193Z,95403.59
2023-03-29T15:28:32.358Z,95404.28
2023-03-29T15:31:08.134Z,95403.25
2023-03-29T15:33:41.222Z,95395.00
2023-03-29T15:36:10.580Z,95384.53
2023-03-29T15:38:43.947Z,95379.56
2023-03-29T15:41:11.742Z,95379.78
2023-03-29T15:43:38.313Z,95369.56
2023-03-29T15:46:05.304Z,95378.91
2023-03-29T15:48:33.479Z,95364.34
2023-03-29T15:51:02.717Z,95365.38
2023-03-29T15:53:32.177Z,95352.00
2023-03-29T15:56:05.321Z,95343.72
2023-03-29T15:58:33.841Z,95343.75
2023-03-29T16:01:34.385Z,95347.03
2023-03-29T16:04:14.053Z,95343.09
2023-03-29T16:06:41.227Z,95355.28
2023-03-29T16:09:08.705Z,95359.13
2023-03-29T16:11:35.317Z,95359.41
2023-03-29T16:14:01.931Z,95357.59
2023-03-29T16:16:28.689Z,95352.09
2023-03-29T16:18:55.302Z,95354.66
2023-03-29T16:21:22.606Z,95357.03
2023-03-29T16:23:49.129Z,95354.41
2023-03-29T16:26:16.989Z,95369.88
2023-03-29T16:28:43.916Z,95360.28
2023-03-29T16:31:11.806Z,95354.00
2023-03-29T16:33:39.071Z,95354.00
2023-03-29T16:36:06.349Z,95355.44
2023-03-29T16:38:33.698Z,95345.25
2023-03-29T16:41:01.463Z,95338.03
2023-03-29T16:43:28.107Z,95340.06
2023-03-29T16:45:54.666Z,95345.88
2023-03-29T16:48:21.367Z,95347.28
2023-03-29T16:50:49.388Z,95336.03
2023-03-29T16:53:18.229Z,95340.94
2023-03-29T16:55:47.830Z,95331.56
2023-03-29T16:58:15.196Z,95332.22
2023-03-29T17:00:41.711Z,95329.22
2023-03-29T17:03:08.892Z,95317.28
2023-03-29T17:05:41.113Z,95320.38
2023-03-29T17:08:10.049Z,95324.44
2023-03-29T17:10:39.583Z,95323.88
2023-03-29T17:13:06.826Z,95327.88
2023-03-29T17:15:33.785Z,95327.13
2023-03-29T17:18:00.581Z,95322.97
2023-03-29T17:20:27.297Z,95328.31
2023-03-29T17:22:55.876Z,95324.28
2023-03-29T17:25:23.348Z,95321.50
2023-03-29T17:27:50.442Z,95310.88
2023-03-29T17:30:17.270Z,95306.88
2023-03-29T17:32:45.755Z,95319.00
2023-03-29T17:35:13.191Z,95311.09
2023-03-29T17:37:39.968Z,95309.78
2023-03-29T17:40:10.452Z,95319.22
2023-03-29T17:42:36.998Z,95325.59
2023-03-29T17:45:03.872Z,95324.28
2023-03-29T17:47:30.557Z,95325.38
2023-03-29T17:49:57.177Z,95327.88
2023-03-29T17:52:23.723Z,95331.00
2023-03-29T17:54:50.428Z,95331.75
2023-03-29T17:57:17.130Z,95337.34
2023-03-29T17:59:43.743Z,95336.78
2023-03-29T18:02:18.781Z,95335.84
2023-03-29T18:04:53.559Z,95327.00
2023-03-29T18:07:20.320Z,95324.38
2023-03-29T18:09:46.890Z,95318.06
2023-03-29T18:12:13.412Z,95322.97
2023-03-29T18:14:40.303Z,95323.19
2023-03-29T18:17:06.993Z,95331.91
2023-03-29T18:19:33.663Z,95327.53
2023-03-29T18:22:00.719Z,95328.69
2023-03-29T18:24:27.407Z,95320.56
2023-03-29T18:26:53.986Z,95321.19
2023-03-29T18:29:20.874Z,95322.22
2023-03-29T18:31:47.431Z,95322.72
2023-03-29T18:34:13.991Z,95330.31
2023-03-29T18:36:40.535Z,95324.22
2023-03-29T18:39:07.095Z,95321.28
2023-03-29T18:41:35.555Z,95319.34
2023-03-29T18:44:02.322Z,95321.28
2023-03-29T18:46:33.141Z,95325.75
2023-03-29T18:49:02.417Z,95327.09
2023-03-29T18:51:29.288Z,95328.06
2023-03-29T18:53:56.378Z,95330.88
2023-03-29T18:56:23.043Z,95331.94
2023-03-29T18:58:49.655Z,95337.63
2023-03-29T19:01:16.329Z,95337.31
2023-03-29T19:03:43.042Z,95343.13
2023-03-29T19:06:10.025Z,95345.53
2023-03-29T19:08:39.474Z,95336.47
2023-03-29T19:11:08.285Z,95333.28
2023-03-29T19:13:35.859Z,95325.06
2023-03-29T19:16:03.537Z,95326.84
2023-03-29T19:18:30.937Z,95317.16
2023-03-29T19:20:57.508Z,95327.81
2023-03-29T19:23:27.140Z,95328.66
2023-03-29T19:25:59.169Z,95322.91
2023-03-29T19:28:27.330Z,95318.31
2023-03-29T19:30:54.535Z,95319.81
2023-03-29T19:33:21.522Z,95318.22
2023-03-29T19:35:51.100Z,95318.03
2023-03-29T19:38:21.388Z,95314.78
2023-03-29T19:40:49.380Z,95313.81
2023-03-29T19:43:16.775Z,95317.19
2023-03-29T19:45:44.284Z,95321.47
2023-03-29T19:48:19.498Z,95318.38
2023-03-29T19:50:48.645Z,95313.88
2023-03-29T19:53:15.221Z,95331.03
2023-03-29T19:55:42.644Z,95327.56
2023-03-29T19:58:09.341Z,95334.38
2023-03-29T20:00:35.967Z,95331.88
2023-03-29T20:03:03.093Z,95334.66
2023-03-29T20:05:29.742Z,95345.06
2023-03-29T20:07:56.318Z,95332.66
2023-03-29T20:10:22.851Z,95335.28
2023-03-29T20:12:50.580Z,95336.41
2023-03-29T20:15:17.344Z,95327.19
2023-03-29T20:17:43.906Z,95324.78
2023-03-29T20:20:12.001Z,95312.31
2023-03-29T20:22:41.965Z,95314.34
2023-03-29T20:25:09.382Z,95308.41
2023-03-29T20:27:35.991Z,95315.47
2023-03-29T20:30:03.329Z,95313.66
2023-03-29T20:32:30.791Z,95311.38
2023-03-29T20:34:57.397Z,95300.34
2023-03-29T20:37:25.758Z,95301.56
2023-03-29T20:39:53.083Z,95298.56
2023-03-29T20:42:24.425Z,95305.00
2023-03-29T20:44:51.235Z,95288.00
2023-03-29T20:47:18.917Z,95288.41
2023-03-29T20:49:45.638Z,95295.06
2023-03-29T20:52:15.621Z,95295.50
2023-03-29T20:54:45.720Z,95286.97
2023-03-29T20:57:17.807Z,95286.34
2023-03-29T20:59:45.192Z,95285.72
2023-03-29T21:02:14.717Z,95277.78
2023-03-29T21:04:41.980Z,95273.69
2023-03-29T21:07:08.487Z,95273.41
2023-03-29T21:09:36.182Z,95263.34
2023-03-29T21:12:03.067Z,95250.97
2023-03-29T21:14:30.393Z,95240.13
2023-03-29T21:16:57.225Z,95230.69
2023-03-29T21:19:24.303Z,95243.88
2023-03-29T21:21:52.148Z,95245.09
2023-03-29T21:24:19.176Z,95240.25
2023-03-29T21:26:46.262Z,95233.31
2023-03-29T21:29:13.058Z,95233.16
2023-03-29T21:31:40.498Z,95238.25
2023-03-29T21:34:07.202Z,95231.59
2023-03-29T21:36:33.762Z,95225.69
2023-03-29T21:39:00.329Z,95221.78
2023-03-29T21:41:27.066Z,95226.97
2023-03-29T21:43:53.587Z,95225.69
2023-03-29T21:46:20.434Z,95221.97
2023-03-29T21:48:46.966Z,95225.44
2023-03-29T21:51:13.585Z,95219.69
2023-03-29T21:53:40.131Z,95218.97
2023-03-29T21:56:08.182Z,95227.13
2023-03-29T21:58:34.730Z,95221.25
2023-03-29T22:01:05.420Z,95220.88
2023-03-29T22:03:32.307Z,95226.44
2023-03-29T22:06:01.713Z,95222.16
2023-03-29T22:08:29.076Z,95226.44
2023-03-29T22:10:56.871Z,95224.06
2023-03-29T22:13:29.649Z,95216.16
2023-03-29T22:16:01.230Z,95218.44
2023-03-29T22:18:30.098Z,95212.53
2023-03-29T22:20:57.180Z,95216.78
2023-03-29T22:23:24.843Z,95222.72
2023-03-29T22:25:51.602Z,95216.63
2023-03-29T22:28:18.131Z,95210.41
2023-03-29T22:30:44.692Z,95208.53
2023-03-29T22:33:11.225Z,95212.63
2023-03-29T22:35:37.807Z,95203.78
2023-03-29T22:38:04.420Z,95209.78
2023-03-29T22:40:33.151Z,95201.97
2023-03-29T22:43:00.057Z,95190.97
2023-03-29T22:45:26.649Z,95193.03
2023-03-29T22:47:53.311Z,95193.69
2023-03-29T22:50:19.886Z,95187.13
2023-03-29T22:52:46.443Z,95191.97
2023-03-29T22:55:13.100Z,95183.84
2023-03-29T22:57:39.642Z,95181.31
2023-03-29T23:00:08.935Z,95179.88
2023-03-29T23:02:36.538Z,95173.59
2023-03-29T23:05:03.180Z,95175.84
2023-03-29T23:07:29.856Z,95170.94
2023-03-29T23:09:56.596Z,95165.88
2023-03-29T23:12:24.126Z,95155.50
2023-03-29T23:14:52.812Z,95161.50
2023-03-29T23:17:19.403Z,95165.22
2023-03-29T23:19:45.959Z,95164.69
2023-03-29T23:22:12.482Z,95156.84
2023-03-29T23:24:40.294Z,95157.13
2023-03-29T23:27:07.637Z,95158.50
2023-03-29T23:29:34.474Z,95150.16
2023-03-29T23:32:00.995Z,95143.84
2023-03-29T23:34:27.518Z,95140.94
2023-03-29T23:36:54.057Z,95134.69
2023-03-29T23:39:20.560Z,95135.88
2023-03-29T23:41:47.101Z,95133.84
2023-03-29T23:44:13.649Z,95137.94
2023-03-29T23:46:41.194Z,95135.94
2023-03-29T23:49:08.479Z,95140.03
2023-03-29T23:51:36.639Z,95132.75
2023-03-29T23:54:03.333Z,95132.03
2023-03-29T23:56:29.871Z,95128.31
2023-03-29T23:58:56.553Z,95130.06
